SLC weather

Salt Lake City International Airport
Salt Lake City, Utah, United States

Public forecast

Using degrees Fahrenheit for public forecast. Weather courtesy of forecast.io.

METAR (pilot weather report)

Retrieved 2018/12/19 14:54 UTC (19 minutes ago):

KSLC 191454Z 28004KT 10SM SCT037 BKN065 BKN100 03/M01 A3030 RMK AO2 SLP262 60000 T00281006 53023

TAF (pilot weather forecast)

Retrieved 2018/12/19 12:40 UTC (3 hours ago):

TAF KSLC 191138Z 1912/2018 33006KT P6SM BKN060 FM191700 31007KT P6SM SCT060 BKN100 FM200100 15005KT P6SM SCT100